sensor_id;sensor_type;location;lat;lon;timestamp;pressure;altitude;pressure_sealevel;temperature;humidity
40596;BME280;26304;48.794;9.820;2024-03-02T00:02:20;95185.44;;;15.60;57.65
40596;BME280;26304;48.794;9.820;2024-03-02T00:04:45;95185.44;;;15.60;57.93
40596;BME280;26304;48.794;9.820;2024-03-02T00:07:08;95193.31;;;15.60;57.22
40596;BME280;26304;48.794;9.820;2024-03-02T00:09:30;95193.31;;;15.60;57.39
40596;BME280;26304;48.794;9.820;2024-03-02T00:11:53;95187.28;;;15.60;57.60
40596;BME280;26304;48.794;9.820;2024-03-02T00:14:15;95190.31;;;15.62;57.59
40596;BME280;26304;48.794;9.820;2024-03-02T00:16:38;95188.44;;;15.59;57.63
40596;BME280;26304;48.794;9.820;2024-03-02T00:19:01;95190.28;;;15.58;57.53
40596;BME280;26304;48.794;9.820;2024-03-02T00:21:27;95199.28;;;15.57;57.86
40596;BME280;26304;48.794;9.820;2024-03-02T00:23:51;95190.28;;;15.58;57.72
40596;BME280;26304;48.794;9.820;2024-03-02T00:26:15;95198.53;;;15.57;57.51
40596;BME280;26304;48.794;9.820;2024-03-02T00:28:41;95193.28;;;15.57;57.62
40596;BME280;26304;48.794;9.820;2024-03-02T00:31:05;95192.19;;;15.58;57.19
40596;BME280;26304;48.794;9.820;2024-03-02T00:33:31;95191.03;;;15.55;57.82
40596;BME280;26304;48.794;9.820;2024-03-02T00:35:54;95192.56;;;15.56;57.65
40596;BME280;26304;48.794;9.820;2024-03-02T00:38:18;95186.56;;;15.56;57.27
40596;BME280;26304;48.794;9.820;2024-03-02T00:40:41;95194.06;;;15.57;57.42
40596;BME280;26304;48.794;9.820;2024-03-02T00:43:04;95199.28;;;15.57;57.47
40596;BME280;26304;48.794;9.820;2024-03-02T00:45:26;95192.56;;;15.56;57.53
40596;BME280;26304;48.794;9.820;2024-03-02T00:47:49;95196.28;;;15.55;57.27
40596;BME280;26304;48.794;9.820;2024-03-02T00:50:13;95201.16;;;15.57;57.78
40596;BME280;26304;48.794;9.820;2024-03-02T00:52:36;95198.16;;;15.55;57.65
40596;BME280;26304;48.794;9.820;2024-03-02T00:54:59;95203.41;;;15.55;57.57
40596;BME280;26304;48.794;9.820;2024-03-02T00:57:22;95200.06;;;15.54;57.50
40596;BME280;26304;48.794;9.820;2024-03-02T00:59:47;95203.03;;;15.56;57.23
40596;BME280;26304;48.794;9.820;2024-03-02T01:02:09;95206.75;;;15.55;57.82
40596;BME280;26304;48.794;9.820;2024-03-02T01:04:32;95201.53;;;15.55;57.35
40596;BME280;26304;48.794;9.820;2024-03-02T01:06:54;95212.38;;;15.54;57.46
40596;BME280;26304;48.794;9.820;2024-03-02T01:09:17;95215.00;;;15.54;57.66
40596;BME280;26304;48.794;9.820;2024-03-02T01:11:40;95217.25;;;15.55;57.26
40596;BME280;26304;48.794;9.820;2024-03-02T01:14:03;95220.63;;;15.56;57.53
40596;BME280;26304;48.794;9.820;2024-03-02T01:16:26;95218.75;;;15.56;57.21
40596;BME280;26304;48.794;9.820;2024-03-02T01:18:49;95226.97;;;15.58;57.02
40596;BME280;26304;48.794;9.820;2024-03-02T01:21:11;95219.84;;;15.55;57.69
40596;BME280;26304;48.794;9.820;2024-03-02T01:23:33;95218.38;;;15.54;57.32
40596;BME280;26304;48.794;9.820;2024-03-02T01:25:56;95217.25;;;15.55;57.58
40596;BME280;26304;48.794;9.820;2024-03-02T01:28:20;95219.50;;;15.53;57.76
40596;BME280;26304;48.794;9.820;2024-03-02T01:30:43;95218.38;;;15.54;57.48
40596;BME280;26304;48.794;9.820;2024-03-02T01:33:05;95207.50;;;15.52;57.25
40596;BME280;26304;48.794;9.820;2024-03-02T01:35:27;95212.75;;;15.52;57.46
40596;BME280;26304;48.794;9.820;2024-03-02T01:37:50;95205.28;;;15.51;57.38
40596;BME280;26304;48.794;9.820;2024-03-02T01:40:12;95201.91;;;15.50;57.50
40596;BME280;26304;48.794;9.820;2024-03-02T01:42:36;95202.28;;;15.52;57.08
40596;BME280;26304;48.794;9.820;2024-03-02T01:45:00;95197.78;;;15.49;57.77
40596;BME280;26304;48.794;9.820;2024-03-02T01:47:23;95196.31;;;15.48;57.22
40596;BME280;26304;48.794;9.820;2024-03-02T01:49:45;95201.56;;;15.48;57.81
40596;BME280;26304;48.794;9.820;2024-03-02T01:52:08;95201.56;;;15.48;57.25
40596;BME280;26304;48.794;9.820;2024-03-02T01:54:30;95196.31;;;15.48;57.34
40596;BME280;26304;48.794;9.820;2024-03-02T01:56:52;95200.06;;;15.47;57.44
40596;BME280;26304;48.794;9.820;2024-03-02T01:59:15;95200.06;;;15.47;57.38
40596;BME280;26304;48.794;9.820;2024-03-02T02:01:39;95193.34;;;15.46;57.54
40596;BME280;26304;48.794;9.820;2024-03-02T02:04:01;95194.81;;;15.47;57.57
40596;BME280;26304;48.794;9.820;2024-03-02T02:06:24;95184.34;;;15.47;57.58
40596;BME280;26304;48.794;9.820;2024-03-02T02:08:47;95187.34;;;15.46;57.11
40596;BME280;26304;48.794;9.820;2024-03-02T02:11:09;95180.97;;;15.47;57.43
40596;BME280;26304;48.794;9.820;2024-03-02T02:13:32;95180.25;;;15.46;57.52
40596;BME280;26304;48.794;9.820;2024-03-02T02:15:54;95173.50;;;15.45;57.45
40596;BME280;26304;48.794;9.820;2024-03-02T02:18:18;95183.97;;;15.45;57.24
40596;BME280;26304;48.794;9.820;2024-03-02T02:20:40;95174.25;;;15.46;57.37
40596;BME280;26304;48.794;9.820;2024-03-02T02:23:04;95177.63;;;15.46;57.48
40596;BME280;26304;48.794;9.820;2024-03-02T02:25:29;95177.63;;;15.46;57.58
40596;BME280;26304;48.794;9.820;2024-03-02T02:27:52;95185.47;;;15.46;57.14
40596;BME280;26304;48.794;9.820;2024-03-02T02:30:18;95181.34;;;15.45;57.29
40596;BME280;26304;48.794;9.820;2024-03-02T02:32:41;95183.25;;;15.44;57.87
40596;BME280;26304;48.794;9.820;2024-03-02T02:35:04;95178.75;;;15.45;57.10
40596;BME280;26304;48.794;9.820;2024-03-02T02:37:27;95178.38;;;15.43;57.87
40596;BME280;26304;48.794;9.820;2024-03-02T02:39:51;95173.13;;;15.43;57.37
40596;BME280;26304;48.794;9.820;2024-03-02T02:42:13;95177.22;;;15.44;57.39
40596;BME280;26304;48.794;9.820;2024-03-02T02:44:36;95168.63;;;15.43;57.63
40596;BME280;26304;48.794;9.820;2024-03-02T02:46:58;95169.75;;;15.42;57.48
40596;BME280;26304;48.794;9.820;2024-03-02T02:49:20;95167.91;;;15.43;57.64
40596;BME280;26304;48.794;9.820;2024-03-02T02:51:43;95167.91;;;15.43;57.48
40596;BME280;26304;48.794;9.820;2024-03-02T02:54:05;95164.91;;;15.41;57.72
40596;BME280;26304;48.794;9.820;2024-03-02T02:56:29;95167.13;;;15.42;57.11
40596;BME280;26304;48.794;9.820;2024-03-02T02:58:51;95170.53;;;15.43;57.28
40596;BME280;26304;48.794;9.820;2024-03-02T03:01:14;95166.41;;;15.42;57.50
40596;BME280;26304;48.794;9.820;2024-03-02T03:03:38;95167.13;;;15.42;57.68
40596;BME280;26304;48.794;9.820;2024-03-02T03:06:00;95164.91;;;15.41;57.72
40596;BME280;26304;48.794;9.820;2024-03-02T03:08:23;95155.19;;;15.41;57.41
40596;BME280;26304;48.794;9.820;2024-03-02T03:10:45;95161.16;;;15.42;57.51
40596;BME280;26304;48.794;9.820;2024-03-02T03:13:09;95155.56;;;15.40;57.31
40596;BME280;26304;48.794;9.820;2024-03-02T03:15:32;95147.72;;;15.40;57.46
40596;BME280;26304;48.794;9.820;2024-03-02T03:17:54;95150.31;;;15.40;57.44
40596;BME280;26304;48.794;9.820;2024-03-02T03:20:17;95153.69;;;15.40;57.72
40596;BME280;26304;48.794;9.820;2024-03-02T03:22:39;95152.19;;;15.39;57.52
40596;BME280;26304;48.794;9.820;2024-03-02T03:25:02;95158.19;;;15.40;57.31
40596;BME280;26304;48.794;9.820;2024-03-02T03:27:25;95159.28;;;15.39;57.19
40596;BME280;26304;48.794;9.820;2024-03-02T03:29:49;95167.16;;;15.39;57.25
40596;BME280;26304;48.794;9.820;2024-03-02T03:32:11;95157.78;;;15.38;57.24
40596;BME280;26304;48.794;9.820;2024-03-02T03:34:34;95167.16;;;15.39;57.65
40596;BME280;26304;48.794;9.820;2024-03-02T03:36:56;95167.16;;;15.39;57.18
40596;BME280;26304;48.794;9.820;2024-03-02T03:39:19;95165.66;;;15.38;57.03
40596;BME280;26304;48.794;9.820;2024-03-02T03:41:41;95165.66;;;15.38;57.11
40596;BME280;26304;48.794;9.820;2024-03-02T03:44:04;95164.16;;;15.37;57.05
40596;BME280;26304;48.794;9.820;2024-03-02T03:46:27;95167.91;;;15.36;57.65
40596;BME280;26304;48.794;9.820;2024-03-02T03:48:50;95163.41;;;15.36;57.47
40596;BME280;26304;48.794;9.820;2024-03-02T03:51:12;95168.66;;;15.36;57.67
40596;BME280;26304;48.794;9.820;2024-03-02T03:53:35;95173.13;;;15.36;57.28
40596;BME280;26304;48.794;9.820;2024-03-02T03:55:57;95178.38;;;15.36;57.59
40596;BME280;26304;48.794;9.820;2024-03-02T03:58:19;95169.03;;;15.35;57.42
40596;BME280;26304;48.794;9.820;2024-03-02T04:00:42;95177.63;;;15.35;57.42
40596;BME280;26304;48.794;9.820;2024-03-02T04:03:06;95176.50;;;15.33;57.17
40596;BME280;26304;48.794;9.820;2024-03-02T04:05:28;95183.63;;;15.32;57.27
40596;BME280;26304;48.794;9.820;2024-03-02T04:07:50;95175.03;;;15.32;57.74
40596;BME280;26304;48.794;9.820;2024-03-02T04:10:13;95170.53;;;15.32;57.19
40596;BME280;26304;48.794;9.820;2024-03-02T04:12:35;95162.69;;;15.32;57.23
40596;BME280;26304;48.794;9.820;2024-03-02T04:14:58;95176.50;;;15.33;57.69
40596;BME280;26304;48.794;9.820;2024-03-02T04:17:20;95177.66;;;15.32;57.30
40596;BME280;26304;48.794;9.820;2024-03-02T04:19:44;95182.91;;;15.32;57.22
40596;BME280;26304;48.794;9.820;2024-03-02T04:22:06;95177.66;;;15.32;57.13
40596;BME280;26304;48.794;9.820;2024-03-02T04:24:29;95176.88;;;15.31;57.04
40596;BME280;26304;48.794;9.820;2024-03-02T04:26:51;95172.03;;;15.30;57.58
40596;BME280;26304;48.794;9.820;2024-03-02T04:29:13;95181.38;;;15.31;57.18
40596;BME280;26304;48.794;9.820;2024-03-02T04:31:36;95172.03;;;15.30;57.13
40596;BME280;26304;48.794;9.820;2024-03-02T04:33:58;95181.38;;;15.31;57.51
40596;BME280;26304;48.794;9.820;2024-03-02T04:36:22;95179.88;;;15.30;57.40
40596;BME280;26304;48.794;9.820;2024-03-02T04:38:44;95178.41;;;15.29;57.54
40596;BME280;26304;48.794;9.820;2024-03-02T04:41:07;95179.88;;;15.30;57.14
40596;BME280;26304;48.794;9.820;2024-03-02T04:43:29;95182.13;;;15.28;57.08
40596;BME280;26304;48.794;9.820;2024-03-02T04:45:52;95182.50;;;15.26;57.29
40596;BME280;26304;48.794;9.820;2024-03-02T04:48:15;95179.53;;;15.28;57.54
40596;BME280;26304;48.794;9.820;2024-03-02T04:50:37;95182.13;;;15.28;57.39
40596;BME280;26304;48.794;9.820;2024-03-02T04:53:01;95179.16;;;15.29;57.50
40596;BME280;26304;48.794;9.820;2024-03-02T04:55:23;95179.91;;;15.26;57.63
40596;BME280;26304;48.794;9.820;2024-03-02T04:58:11;95179.19;;;15.11;57.93
40596;BME280;26304;48.794;9.820;2024-03-02T05:00:33;95188.53;;;14.98;58.60
40596;BME280;26304;48.794;9.820;2024-03-02T05:02:56;95190.69;;;15.60;56.66
40596;BME280;26304;48.794;9.820;2024-03-02T05:05:18;95185.59;;;16.20;55.00
40596;BME280;26304;48.794;9.820;2024-03-02T05:07:41;95188.19;;;16.80;53.72
40596;BME280;26304;48.794;9.820;2024-03-02T05:10:07;95184.13;;;17.24;52.85
40596;BME280;26304;48.794;9.820;2024-03-02T05:12:29;95179.91;;;17.68;52.00
40596;BME280;26304;48.794;9.820;2024-03-02T05:15:13;95190.28;;;18.13;51.25
40596;BME280;26304;48.794;9.820;2024-03-02T05:17:35;95186.00;;;18.27;50.99
40596;BME280;26304;48.794;9.820;2024-03-02T05:19:58;95184.78;;;18.59;50.62
40596;BME280;26304;48.794;9.820;2024-03-02T05:22:21;95184.16;;;18.75;50.03
40596;BME280;26304;48.794;9.820;2024-03-02T05:24:43;95181.41;;;18.85;49.67
40596;BME280;26304;48.794;9.820;2024-03-02T05:27:07;95185.63;;;19.03;49.59
40596;BME280;26304;48.794;9.820;2024-03-02T05:29:29;95192.50;;;19.20;49.29
40596;BME280;26304;48.794;9.820;2024-03-02T05:31:52;95187.50;;;19.50;49.43
40596;BME280;26304;48.794;9.820;2024-03-02T05:34:14;95191.88;;;19.56;49.39
40596;BME280;26304;48.794;9.820;2024-03-02T05:36:36;95188.13;;;19.77;48.82
40596;BME280;26304;48.794;9.820;2024-03-02T05:39:00;95190.59;;;19.85;48.72
40596;BME280;26304;48.794;9.820;2024-03-02T05:41:22;95190.53;;;20.08;48.36
40596;BME280;26304;48.794;9.820;2024-03-02T05:43:46;95183.88;;;18.69;51.50
40596;BME280;26304;48.794;9.820;2024-03-02T05:46:08;95192.44;;;18.49;52.06
40596;BME280;26304;48.794;9.820;2024-03-02T05:48:31;95191.75;;;18.45;52.40
40596;BME280;26304;48.794;9.820;2024-03-02T05:50:53;95192.25;;;18.37;52.65
40596;BME280;26304;48.794;9.820;2024-03-02T05:53:16;95191.75;;;18.18;53.41
40596;BME280;26304;48.794;9.820;2024-03-02T05:55:38;95192.25;;;18.09;53.17
40596;BME280;26304;48.794;9.820;2024-03-02T05:58:01;95187.75;;;18.06;53.13
40596;BME280;26304;48.794;9.820;2024-03-02T06:00:40;95193.16;;;17.95;53.38
40596;BME280;26304;48.794;9.820;2024-03-02T06:03:02;95192.09;;;17.89;53.75
40596;BME280;26304;48.794;9.820;2024-03-02T06:05:25;95186.13;;;17.82;53.82
40596;BME280;26304;48.794;9.820;2024-03-02T06:07:47;95187.72;;;17.75;53.74
40596;BME280;26304;48.794;9.820;2024-03-02T06:10:10;95185.63;;;17.63;54.00
40596;BME280;26304;48.794;9.820;2024-03-02T06:12:32;95198.19;;;17.45;54.07
40596;BME280;26304;48.794;9.820;2024-03-02T06:14:54;95192.06;;;17.55;54.33
40596;BME280;26304;48.794;9.820;2024-03-02T06:17:18;95203.72;;;17.54;54.40
40596;BME280;26304;48.794;9.820;2024-03-02T06:19:41;95199.59;;;17.53;54.85
40596;BME280;26304;48.794;9.820;2024-03-02T06:22:03;95197.84;;;17.42;54.67
40596;BME280;26304;48.794;9.820;2024-03-02T06:24:26;95201.25;;;17.39;54.58
40596;BME280;26304;48.794;9.820;2024-03-02T06:26:49;95197.53;;;17.33;54.89
40596;BME280;26304;48.794;9.820;2024-03-02T06:29:11;95193.09;;;17.27;54.13
40596;BME280;26304;48.794;9.820;2024-03-02T06:31:33;95201.38;;;17.21;53.70
40596;BME280;26304;48.794;9.820;2024-03-02T06:33:57;95210.47;;;17.13;54.41
40596;BME280;26304;48.794;9.820;2024-03-02T06:36:19;95218.03;;;17.04;54.48
40596;BME280;26304;48.794;9.820;2024-03-02T06:38:42;95220.72;;;16.97;54.82
40596;BME280;26304;48.794;9.820;2024-03-02T06:41:04;95221.88;;;16.92;54.46
40596;BME280;26304;48.794;9.820;2024-03-02T06:43:27;95214.44;;;16.87;54.26
40596;BME280;26304;48.794;9.820;2024-03-02T06:45:49;95220.06;;;16.82;54.41
40596;BME280;26304;48.794;9.820;2024-03-02T06:48:11;95220.06;;;16.78;54.33
40596;BME280;26304;48.794;9.820;2024-03-02T06:50:37;95209.25;;;16.73;54.47
40596;BME280;26304;48.794;9.820;2024-03-02T06:53:00;95216.00;;;16.70;54.71
40596;BME280;26304;48.794;9.820;2024-03-02T06:55:22;95219.78;;;16.65;54.79
40596;BME280;26304;48.794;9.820;2024-03-02T06:57:45;95214.56;;;16.62;54.38
40596;BME280;26304;48.794;9.820;2024-03-02T07:00:08;95222.47;;;16.58;54.57
40596;BME280;26304;48.794;9.820;2024-03-02T07:02:31;95220.63;;;16.55;54.11
40596;BME280;26304;48.794;9.820;2024-03-02T07:04:53;95216.88;;;16.52;54.16
40596;BME280;26304;48.794;9.820;2024-03-02T07:07:17;95222.53;;;16.47;54.31
40596;BME280;26304;48.794;9.820;2024-03-02T07:09:40;95225.91;;;16.44;54.27
40596;BME280;26304;48.794;9.820;2024-03-02T07:12:02;95236.41;;;16.44;54.67
40596;BME280;26304;48.794;9.820;2024-03-02T07:14:25;95230.84;;;16.39;54.91
40596;BME280;26304;48.794;9.820;2024-03-02T07:17:07;95231.22;;;16.37;54.57
40596;BME280;26304;48.794;9.820;2024-03-02T07:19:30;95234.97;;;16.36;55.07
40596;BME280;26304;48.794;9.820;2024-03-02T07:21:53;95226.72;;;16.34;54.68
40596;BME280;26304;48.794;9.820;2024-03-02T07:24:17;95236.09;;;16.31;54.66
40596;BME280;26304;48.794;9.820;2024-03-02T07:26:39;95228.97;;;16.32;54.72
40596;BME280;26304;48.794;9.820;2024-03-02T07:29:02;95225.25;;;16.29;54.74
40596;BME280;26304;48.794;9.820;2024-03-02T07:31:24;95228.28;;;16.24;55.05
40596;BME280;26304;48.794;9.820;2024-03-02T07:33:46;95224.91;;;16.24;54.58
40596;BME280;26304;48.794;9.820;2024-03-02T07:36:09;95227.91;;;16.22;54.80
40596;BME280;26304;48.794;9.820;2024-03-02T07:38:32;95229.41;;;16.16;54.58
40596;BME280;26304;48.794;9.820;2024-03-02T07:40:57;95229.44;;;16.12;55.15
40596;BME280;26304;48.794;9.820;2024-03-02T07:43:21;95230.19;;;16.09;54.94
40596;BME280;26304;48.794;9.820;2024-03-02T07:45:44;95232.84;;;16.06;54.52
40596;BME280;26304;48.794;9.820;2024-03-02T07:48:06;95232.84;;;16.06;54.63
40596;BME280;26304;48.794;9.820;2024-03-02T07:50:29;95231.34;;;16.05;54.85
40596;BME280;26304;48.794;9.820;2024-03-02T07:52:51;95233.59;;;16.03;54.46
40596;BME280;26304;48.794;9.820;2024-03-02T07:55:14;95225.00;;;15.98;54.35
40596;BME280;26304;48.794;9.820;2024-03-02T07:57:38;95230.63;;;15.93;54.44
40596;BME280;26304;48.794;9.820;2024-03-02T08:00:00;95230.28;;;15.91;54.79
40596;BME280;26304;48.794;9.820;2024-03-02T08:02:22;95222.06;;;15.89;54.52
40596;BME280;26304;48.794;9.820;2024-03-02T08:04:45;95230.28;;;15.84;54.33
40596;BME280;26304;48.794;9.820;2024-03-02T08:07:08;95232.91;;;15.91;53.96
40596;BME280;26304;48.794;9.820;2024-03-02T08:09:30;95232.16;;;15.91;53.81
40596;BME280;26304;48.794;9.820;2024-03-02T08:11:53;95229.16;;;15.89;54.50
40596;BME280;26304;48.794;9.820;2024-03-02T08:14:16;95222.03;;;15.93;54.54
40596;BME280;26304;48.794;9.820;2024-03-02T08:16:40;95222.06;;;15.89;55.35
40596;BME280;26304;48.794;9.820;2024-03-02T08:19:02;95223.19;;;15.81;55.24
40596;BME280;26304;48.794;9.820;2024-03-02T08:21:24;95228.44;;;15.81;55.39
40596;BME280;26304;48.794;9.820;2024-03-02T08:23:47;95223.94;;;15.85;54.83
40596;BME280;26304;48.794;9.820;2024-03-02T08:26:11;95225.06;;;15.84;54.46
40596;BME280;26304;48.794;9.820;2024-03-02T08:28:33;95220.97;;;15.79;55.03
40596;BME280;26304;48.794;9.820;2024-03-02T08:30:57;95223.94;;;15.82;54.14
40596;BME280;26304;48.794;9.820;2024-03-02T08:33:20;95223.97;;;15.78;54.33
40596;BME280;26304;48.794;9.820;2024-03-02T08:35:42;95229.91;;;15.86;54.73
40596;BME280;26304;48.794;9.820;2024-03-02T08:38:05;95232.94;;;15.80;54.33
40596;BME280;26304;48.794;9.820;2024-03-02T08:40:27;95238.53;;;15.79;54.37
40596;BME280;26304;48.794;9.820;2024-03-02T08:42:50;95238.91;;;15.81;54.00
40596;BME280;26304;48.794;9.820;2024-03-02T08:45:13;95240.78;;;15.84;54.42
40596;BME280;26304;48.794;9.820;2024-03-02T08:47:37;95232.19;;;15.80;54.34
40596;BME280;26304;48.794;9.820;2024-03-02T08:49:59;95237.44;;;15.80;53.56
40596;BME280;26304;48.794;9.820;2024-03-02T08:52:21;95234.44;;;15.82;53.49
40596;BME280;26304;48.794;9.820;2024-03-02T08:54:44;95234.44;;;15.82;54.24
40596;BME280;26304;48.794;9.820;2024-03-02T08:57:06;95231.81;;;15.82;53.47
40596;BME280;26304;48.794;9.820;2024-03-02T08:59:29;95234.44;;;15.78;53.85
40596;BME280;26304;48.794;9.820;2024-03-02T09:01:52;95240.06;;;15.76;53.42
40596;BME280;26304;48.794;9.820;2024-03-02T09:04:16;95244.56;;;15.79;53.23
40596;BME280;26304;48.794;9.820;2024-03-02T09:06:40;95229.94;;;15.78;53.13
40596;BME280;26304;48.794;9.820;2024-03-02T09:09:02;95235.94;;;15.79;53.39
40596;BME280;26304;48.794;9.820;2024-03-02T09:11:26;95230.69;;;15.79;53.52
40596;BME280;26304;48.794;9.820;2024-03-02T09:13:48;95238.91;;;15.77;52.82
40596;BME280;26304;48.794;9.820;2024-03-02T09:16:10;95233.28;;;15.75;53.09
40596;BME280;26304;48.794;9.820;2024-03-02T09:18:33;95229.94;;;15.78;52.21
40596;BME280;26304;48.794;9.820;2024-03-02T09:20:57;95228.78;;;15.76;52.80
40596;BME280;26304;48.794;9.820;2024-03-02T09:23:19;95225.44;;;15.75;52.76
40596;BME280;26304;48.794;9.820;2024-03-02T09:25:42;95226.59;;;15.78;52.22
40596;BME280;26304;48.794;9.820;2024-03-02T09:28:04;95234.41;;;15.85;52.76
40596;BME280;26304;48.794;9.820;2024-03-02T09:30:28;95227.66;;;15.84;52.85
40596;BME280;26304;48.794;9.820;2024-03-02T09:32:50;95223.19;;;15.81;52.45
40596;BME280;26304;48.794;9.820;2024-03-02T09:35:12;95225.09;;;15.77;51.46
40596;BME280;26304;48.794;9.820;2024-03-02T09:37:36;95224.69;;;15.82;52.01
40596;BME280;26304;48.794;9.820;2024-03-02T09:39:59;95224.69;;;15.82;51.60
40596;BME280;26304;48.794;9.820;2024-03-02T09:42:22;95216.09;;;15.78;50.78
40596;BME280;26304;48.794;9.820;2024-03-02T09:44:45;95220.19;;;15.79;50.81
40596;BME280;26304;48.794;9.820;2024-03-02T09:47:07;95215.31;;;15.81;51.65
40596;BME280;26304;48.794;9.820;2024-03-02T09:49:30;95215.34;;;15.77;51.63
40596;BME280;26304;48.794;9.820;2024-03-02T09:51:52;95213.09;;;15.79;51.10
40596;BME280;26304;48.794;9.820;2024-03-02T09:54:17;95207.09;;;15.79;51.84
40596;BME280;26304;48.794;9.820;2024-03-02T09:56:39;95214.22;;;15.82;51.98
40596;BME280;26304;48.794;9.820;2024-03-02T09:59:02;95208.97;;;15.78;51.96
40596;BME280;26304;48.794;9.820;2024-03-02T10:01:24;95205.22;;;15.76;51.98
40596;BME280;26304;48.794;9.820;2024-03-02T10:03:47;95208.97;;;15.82;51.98
40596;BME280;26304;48.794;9.820;2024-03-02T10:06:21;95213.84;;;15.80;52.02
40596;BME280;26304;48.794;9.820;2024-03-02T10:08:43;95205.63;;;15.78;52.31
40596;BME280;26304;48.794;9.820;2024-03-02T10:11:07;95205.59;;;15.74;52.14
40596;BME280;26304;48.794;9.820;2024-03-02T10:13:29;95207.47;;;15.74;52.00
40596;BME280;26304;48.794;9.820;2024-03-02T10:15:52;95204.13;;;15.73;51.87
40596;BME280;26304;48.794;9.820;2024-03-02T10:18:26;95199.25;;;15.72;51.83
40596;BME280;26304;48.794;9.820;2024-03-02T10:20:49;95195.13;;;15.71;51.61
40596;BME280;26304;48.794;9.820;2024-03-02T10:23:13;95198.88;;;15.73;51.48
40596;BME280;26304;48.794;9.820;2024-03-02T10:25:35;95194.00;;;15.72;51.20
40596;BME280;26304;48.794;9.820;2024-03-02T10:27:59;95205.59;;;15.71;50.98
40596;BME280;26304;48.794;9.820;2024-03-02T10:30:22;95202.25;;;15.70;50.69
40596;BME280;26304;48.794;9.820;2024-03-02T10:32:44;95199.25;;;15.68;49.70
40596;BME280;26304;48.794;9.820;2024-03-02T10:35:08;95193.25;;;15.68;50.32
40596;BME280;26304;48.794;9.820;2024-03-02T10:37:30;95188.75;;;15.68;50.91
40596;BME280;26304;48.794;9.820;2024-03-02T10:39:54;95187.28;;;15.71;50.46
40596;BME280;26304;48.794;9.820;2024-03-02T10:42:17;95192.50;;;15.71;50.27
40596;BME280;26304;48.794;9.820;2024-03-02T10:44:43;95192.13;;;15.72;50.14
40596;BME280;26304;48.794;9.820;2024-03-02T10:47:06;95194.00;;;15.75;50.65
40596;BME280;26304;48.794;9.820;2024-03-02T10:49:29;95185.78;;;15.73;50.55
40596;BME280;26304;48.794;9.820;2024-03-02T10:51:52;95181.28;;;15.77;50.81
40596;BME280;26304;48.794;9.820;2024-03-02T10:54:14;95185.78;;;15.77;50.81
40596;BME280;26304;48.794;9.820;2024-03-02T10:56:39;95178.25;;;15.83;50.80
40596;BME280;26304;48.794;9.820;2024-03-02T10:59:03;95176.41;;;15.83;51.04
40596;BME280;26304;48.794;9.820;2024-03-02T11:01:29;95174.50;;;15.87;51.54
40596;BME280;26304;48.794;9.820;2024-03-02T11:03:52;95172.97;;;15.93;51.47
40596;BME280;26304;48.794;9.820;2024-03-02T11:06:16;95169.63;;;15.93;51.04
40596;BME280;26304;48.794;9.820;2024-03-02T11:08:40;95171.13;;;15.94;50.93
40596;BME280;26304;48.794;9.820;2024-03-02T11:11:07;95162.50;;;15.93;51.24
40596;BME280;26304;48.794;9.820;2024-03-02T11:13:31;95166.25;;;15.92;51.42
40596;BME280;26304;48.794;9.820;2024-03-02T11:15:59;95159.13;;;15.96;50.44
40596;BME280;26304;48.794;9.820;2024-03-02T11:18:27;95166.97;;;15.96;50.64
40596;BME280;26304;48.794;9.820;2024-03-02T11:20:51;95156.50;;;15.96;50.94
40596;BME280;26304;48.794;9.820;2024-03-02T11:23:15;95151.63;;;16.02;50.11
40596;BME280;26304;48.794;9.820;2024-03-02T11:25:37;95152.72;;;16.01;50.40
40596;BME280;26304;48.794;9.820;2024-03-02T11:28:02;95147.09;;;16.03;50.10
40596;BME280;26304;48.794;9.820;2024-03-02T11:30:51;95144.84;;;16.08;49.84
40596;BME280;26304;48.794;9.820;2024-03-02T11:33:23;95140.75;;;16.00;50.58
40596;BME280;26304;48.794;9.820;2024-03-02T11:35:46;95134.75;;;16.00;51.06
40596;BME280;26304;48.794;9.820;2024-03-02T11:38:09;95133.25;;;15.98;50.57
40596;BME280;26304;48.794;9.820;2024-03-02T11:40:32;95126.91;;;16.00;50.81
40596;BME280;26304;48.794;9.820;2024-03-02T11:42:54;95124.28;;;16.00;51.03
40596;BME280;26304;48.794;9.820;2024-03-02T11:45:17;95128.03;;;16.02;50.24
40596;BME280;26304;48.794;9.820;2024-03-02T11:47:46;95116.38;;;16.03;50.11
40596;BME280;26304;48.794;9.820;2024-03-02T11:50:12;95117.13;;;16.07;50.16
40596;BME280;26304;48.794;9.820;2024-03-02T11:52:36;95108.81;;;16.16;50.34
40596;BME280;26304;48.794;9.820;2024-03-02T11:55:02;95109.56;;;16.20;50.23
40596;BME280;26304;48.794;9.820;2024-03-02T11:57:25;95104.28;;;16.24;50.29
40596;BME280;26304;48.794;9.820;2024-03-02T11:59:52;95098.66;;;16.25;50.12
40596;BME280;26304;48.794;9.820;2024-03-02T12:02:16;95094.56;;;16.24;50.05
40596;BME280;26304;48.794;9.820;2024-03-02T12:04:39;95091.56;;;16.26;50.29
40596;BME280;26304;48.794;9.820;2024-03-02T12:07:02;95090.09;;;16.21;50.69
40596;BME280;26304;48.794;9.820;2024-03-02T12:09:26;95090.78;;;16.25;50.06
40596;BME280;26304;48.794;9.820;2024-03-02T12:12:01;95079.50;;;16.36;49.07
40596;BME280;26304;48.794;9.820;2024-03-02T12:14:24;95074.28;;;16.28;49.76
40596;BME280;26304;48.794;9.820;2024-03-02T12:16:48;95075.38;;;16.34;49.79
40596;BME280;26304;48.794;9.820;2024-03-02T12:19:11;95074.94;;;16.40;49.42
40596;BME280;26304;48.794;9.820;2024-03-02T12:21:34;95071.28;;;16.30;50.04
40596;BME280;26304;48.794;9.820;2024-03-02T12:23:56;95069.00;;;16.36;49.38
40596;BME280;26304;48.794;9.820;2024-03-02T12:26:22;95069.66;;;16.47;49.85
40596;BME280;26304;48.794;9.820;2024-03-02T12:28:44;95064.03;;;16.48;50.41
40596;BME280;26304;48.794;9.820;2024-03-02T12:31:07;95060.25;;;16.53;49.84
40596;BME280;26304;48.794;9.820;2024-03-02T12:33:30;95056.44;;;16.58;49.78
40596;BME280;26304;48.794;9.820;2024-03-02T12:35:52;95057.53;;;16.60;49.15
40596;BME280;26304;48.794;9.820;2024-03-02T12:38:15;95059.34;;;16.67;48.98
40596;BME280;26304;48.794;9.820;2024-03-02T12:40:37;95054.13;;;16.63;49.02